Richmond (Nsw), New South Wales

1:41 PM AEDT on December 25, 2014 (GMT +1100)
Richmond (Military) | Change Station
CLOSE
Current Station
Airport
Location: Richmond (NSW),
Elevation: 69 ft
Nearby Weather Stations

Elev 69 ft 33.60 °S, 150.78 °E | Updated 11 minutes ago

Clear
Clear
88 °F
Feels Like 93 °F
N
9
Wind Variable Wind from East

Today
High -- | Low -- °F
--% Chance of Precip.
Yesterday
High -- | Low -- °F
Precip. -- in
5:45 AM 8:08 PM
Waxing Crescent, 12% visible
Pressure 29.68 in
Visibility 6.2 miles
Clouds
Heat Index 93 °F
Dew Point 70 °F
Humidity 55%
Rainfall 0.00 in
Snow Depth Not available.
UV Not available.
Pollen Not available.
Air Quality Not available.
Flu Activity Not available.
METAR YSRI 250230Z AUTO 10008KT 9999 // NCD 31/21 Q1005

More Conditions Fewer Conditions

Pressure 29.68 in
Visibility 6.2 miles
Clouds
Heat Index 93 °F
Dew Point 70 °F
Humidity 55%
Rainfall 0.00 in
Snow Depth Not available.
UV Not available.
Pollen Not available.
Air Quality Not available.
Flu Activity Not available.
METAR YSRI 250230Z AUTO 10008KT 9999 // NCD 31/21 Q1005

More Conditions Fewer Conditions

10-Day Weather Forecast

Almanac

Astronomy

Dec. 25, 2014 Rise Set
Actual Time
Civil Twilight
Nautical Twilight
Astronomical Twilight
Moon
Length of Visible Light
Length of Day
Tomorrow will be .
, % of the Moon is Illuminated

Today's Extremes

Country Highs Country Lows

Community

WunderPhotos

Upload Photos

1,780,215 photos uploaded!

WunderBlogs® & News

Nearby

Air Quality

  Air Quality AQ Index Pollutant
Not available.

Snow Depth

Station Depth Elevation

Earthquake Activity

City Distance Mag. Time & Date
Minimum magnitude displayed is 2.5.

Coastal Water Temperatures

Place Temperature

Nearby Weather Stations